sensor_id;sensor_type;location;lat;lon;timestamp;pressure;altitude;pressure_sealevel;temperature;humidity
70684;BME280;58263;48.146;11.440;2023-06-14T00:00:10;95199.94;;;14.26;46.32
70684;BME280;58263;48.146;11.440;2023-06-14T00:02:38;95204.47;;;14.15;46.68
70684;BME280;58263;48.146;11.440;2023-06-14T00:05:04;95205.31;;;14.15;46.48
70684;BME280;58263;48.146;11.440;2023-06-14T00:07:41;95201.25;;;14.13;46.73
70684;BME280;58263;48.146;11.440;2023-06-14T00:10:13;95201.25;;;14.13;47.01
70684;BME280;58263;48.146;11.440;2023-06-14T00:12:39;95200.69;;;14.06;47.37
70684;BME280;58263;48.146;11.440;2023-06-14T00:15:05;95199.09;;;14.05;47.64
70684;BME280;58263;48.146;11.440;2023-06-14T00:17:31;95193.91;;;13.88;47.55
70684;BME280;58263;48.146;11.440;2023-06-14T00:20:00;95194.69;;;13.78;48.49
70684;BME280;58263;48.146;11.440;2023-06-14T00:22:25;95201.44;;;13.80;48.25
70684;BME280;58263;48.146;11.440;2023-06-14T00:24:54;95198.97;;;13.74;48.91
70684;BME280;58263;48.146;11.440;2023-06-14T00:27:19;95191.69;;;13.69;48.76
70684;BME280;58263;48.146;11.440;2023-06-14T00:29:45;95196.00;;;13.65;48.37
70684;BME280;58263;48.146;11.440;2023-06-14T00:32:10;95194.91;;;13.66;49.09
70684;BME280;58263;48.146;11.440;2023-06-14T00:34:35;95182.25;;;13.66;49.12
70684;BME280;58263;48.146;11.440;2023-06-14T00:37:01;95187.88;;;13.60;49.20
70684;BME280;58263;48.146;11.440;2023-06-14T00:39:26;95196.75;;;13.60;48.96
70684;BME280;58263;48.146;11.440;2023-06-14T00:41:51;95196.75;;;13.60;49.23
70684;BME280;58263;48.146;11.440;2023-06-14T00:44:17;95195.13;;;13.54;48.88
70684;BME280;58263;48.146;11.440;2023-06-14T00:46:44;95193.22;;;13.49;49.89
70684;BME280;58263;48.146;11.440;2023-06-14T00:49:10;95193.22;;;13.44;49.70
70684;BME280;58263;48.146;11.440;2023-06-14T00:51:37;95193.97;;;13.40;49.67
70684;BME280;58263;48.146;11.440;2023-06-14T00:54:02;95192.63;;;13.37;49.25
70684;BME280;58263;48.146;11.440;2023-06-14T00:56:28;95197.38;;;13.25;50.25
70684;BME280;58263;48.146;11.440;2023-06-14T00:58:55;95197.91;;;13.22;50.17
70684;BME280;58263;48.146;11.440;2023-06-14T01:01:21;95192.47;;;13.16;50.17
70684;BME280;58263;48.146;11.440;2023-06-14T01:03:46;95194.38;;;13.16;50.54
70684;BME280;58263;48.146;11.440;2023-06-14T01:09:00;95196.50;;;13.14;50.63
70684;BME280;58263;48.146;11.440;2023-06-14T01:11:32;95198.34;;;13.08;50.94
70684;BME280;58263;48.146;11.440;2023-06-14T01:14:01;95196.72;;;13.07;50.91
70684;BME280;58263;48.146;11.440;2023-06-14T01:16:29;95204.78;;;13.02;51.29
70684;BME280;58263;48.146;11.440;2023-06-14T01:18:56;95202.56;;;12.94;51.70
70684;BME280;58263;48.146;11.440;2023-06-14T01:21:24;95195.84;;;12.96;51.49
70684;BME280;58263;48.146;11.440;2023-06-14T01:23:50;95200.94;;;12.93;51.79
70684;BME280;58263;48.146;11.440;2023-06-14T01:26:19;95196.59;;;12.87;51.84
70684;BME280;58263;48.146;11.440;2023-06-14T01:28:45;95199.53;;;12.85;51.84
70684;BME280;58263;48.146;11.440;2023-06-14T01:31:14;95202.50;;;12.83;52.05
70684;BME280;58263;48.146;11.440;2023-06-14T01:33:42;95197.84;;;12.74;52.70
70684;BME280;58263;48.146;11.440;2023-06-14T01:36:08;95196.75;;;12.70;53.17
70684;BME280;58263;48.146;11.440;2023-06-14T01:38:34;95185.97;;;12.70;52.85
70684;BME280;58263;48.146;11.440;2023-06-14T01:41:00;95192.69;;;12.67;53.18
70684;BME280;58263;48.146;11.440;2023-06-14T01:43:27;95188.06;;;12.62;53.35
70684;BME280;58263;48.146;11.440;2023-06-14T01:45:55;95181.88;;;12.62;53.03
70684;BME280;58263;48.146;11.440;2023-06-14T01:48:22;95188.84;;;12.58;53.18
70684;BME280;58263;48.146;11.440;2023-06-14T01:50:48;95177.28;;;12.57;53.26
70684;BME280;58263;48.146;11.440;2023-06-14T01:53:14;95178.03;;;12.52;53.83
70684;BME280;58263;48.146;11.440;2023-06-14T01:55:39;95178.59;;;12.55;53.22
70684;BME280;58263;48.146;11.440;2023-06-14T01:58:08;95181.28;;;12.55;53.40
70684;BME280;58263;48.146;11.440;2023-06-14T02:00:34;95181.25;;;12.49;53.68
70684;BME280;58263;48.146;11.440;2023-06-14T02:03:00;95188.75;;;12.47;53.56
70684;BME280;58263;48.146;11.440;2023-06-14T02:05:26;95185.50;;;12.45;54.19
70684;BME280;58263;48.146;11.440;2023-06-14T02:07:51;95181.13;;;12.39;54.17
70684;BME280;58263;48.146;11.440;2023-06-14T02:10:18;95184.66;;;12.40;54.53
70684;BME280;58263;48.146;11.440;2023-06-14T02:12:43;95190.56;;;12.37;54.74
70684;BME280;58263;48.146;11.440;2023-06-14T02:15:09;95182.97;;;12.33;54.41
70684;BME280;58263;48.146;11.440;2023-06-14T02:17:35;95186.44;;;12.29;54.83
70684;BME280;58263;48.146;11.440;2023-06-14T02:20:01;95194.16;;;12.20;54.83
70684;BME280;58263;48.146;11.440;2023-06-14T02:22:30;95187.44;;;12.23;54.74
70684;BME280;58263;48.146;11.440;2023-06-14T02:24:56;95178.78;;;12.15;55.12
70684;BME280;58263;48.146;11.440;2023-06-14T02:27:21;95184.41;;;12.14;55.37
70684;BME280;58263;48.146;11.440;2023-06-14T02:29:46;95183.66;;;12.18;55.22
70684;BME280;58263;48.146;11.440;2023-06-14T02:32:11;95182.00;;;12.12;55.28
70684;BME280;58263;48.146;11.440;2023-06-14T02:34:37;95189.81;;;12.14;55.01
70684;BME280;58263;48.146;11.440;2023-06-14T02:37:05;95184.56;;;12.02;55.48
70684;BME280;58263;48.146;11.440;2023-06-14T02:39:31;95177.00;;;11.99;55.68
70684;BME280;58263;48.146;11.440;2023-06-14T02:41:57;95186.66;;;11.95;55.65
70684;BME280;58263;48.146;11.440;2023-06-14T02:44:25;95188.28;;;11.96;55.50
70684;BME280;58263;48.146;11.440;2023-06-14T02:46:54;95188.28;;;11.96;55.65
70684;BME280;58263;48.146;11.440;2023-06-14T02:49:21;95190.97;;;11.96;55.99
70684;BME280;58263;48.146;11.440;2023-06-14T02:51:46;95186.25;;;11.86;56.00
70684;BME280;58263;48.146;11.440;2023-06-14T02:54:12;95187.53;;;11.78;56.45
70684;BME280;58263;48.146;11.440;2023-06-14T02:56:37;95190.72;;;11.75;56.32
70684;BME280;58263;48.146;11.440;2023-06-14T02:59:02;95192.84;;;11.73;56.50
70684;BME280;58263;48.146;11.440;2023-06-14T03:01:28;95187.72;;;11.72;56.24
70684;BME280;58263;48.146;11.440;2023-06-14T03:04:01;95175.84;;;11.67;56.25
70684;BME280;58263;48.146;11.440;2023-06-14T03:06:28;95184.16;;;11.66;57.10
70684;BME280;58263;48.146;11.440;2023-06-14T03:08:56;95191.97;;;11.67;56.62
70684;BME280;58263;48.146;11.440;2023-06-14T03:11:25;95190.00;;;11.63;56.96
70684;BME280;58263;48.146;11.440;2023-06-14T03:13:51;95188.41;;;11.62;57.12
70684;BME280;58263;48.146;11.440;2023-06-14T03:16:17;95198.41;;;11.66;57.04
70684;BME280;58263;48.146;11.440;2023-06-14T03:18:45;95191.56;;;11.59;57.04
70684;BME280;58263;48.146;11.440;2023-06-14T03:21:10;95200.16;;;11.56;57.54
70684;BME280;58263;48.146;11.440;2023-06-14T03:23:36;95205.00;;;11.59;57.15
70684;BME280;58263;48.146;11.440;2023-06-14T03:26:02;95203.84;;;11.49;57.36
70684;BME280;58263;48.146;11.440;2023-06-14T03:28:27;95202.75;;;11.50;57.08
70684;BME280;58263;48.146;11.440;2023-06-14T03:30:52;95206.03;;;11.53;57.28
70684;BME280;58263;48.146;11.440;2023-06-14T03:33:18;95209.25;;;11.55;57.08
70684;BME280;58263;48.146;11.440;2023-06-14T03:35:44;95206.09;;;11.58;57.25
70684;BME280;58263;48.146;11.440;2023-06-14T03:38:09;95204.72;;;11.55;57.20
70684;BME280;58263;48.146;11.440;2023-06-14T03:40:34;95213.50;;;11.50;58.05
70684;BME280;58263;48.146;11.440;2023-06-14T03:43:00;95208.97;;;11.51;58.05
70684;BME280;58263;48.146;11.440;2023-06-14T03:45:25;95211.72;;;11.56;57.90
70684;BME280;58263;48.146;11.440;2023-06-14T03:47:50;95216.75;;;11.53;57.29
70684;BME280;58263;48.146;11.440;2023-06-14T03:50:17;95214.34;;;11.51;57.70
70684;BME280;58263;48.146;11.440;2023-06-14T03:52:43;95221.09;;;11.54;58.14
70684;BME280;58263;48.146;11.440;2023-06-14T03:55:09;95219.19;;;11.54;58.06
70684;BME280;58263;48.146;11.440;2023-06-14T03:57:35;95216.75;;;11.53;58.07
70684;BME280;58263;48.146;11.440;2023-06-14T04:00:00;95229.63;;;11.50;58.20
70684;BME280;58263;48.146;11.440;2023-06-14T04:02:26;95225.88;;;11.52;58.34
70684;BME280;58263;48.146;11.440;2023-06-14T04:04:54;95224.06;;;11.57;58.26
70684;BME280;58263;48.146;11.440;2023-06-14T04:07:19;95232.94;;;11.58;58.39
70684;BME280;58263;48.146;11.440;2023-06-14T04:09:46;95235.69;;;11.63;58.63
70684;BME280;58263;48.146;11.440;2023-06-14T04:12:11;95237.56;;;11.62;58.49
70684;BME280;58263;48.146;11.440;2023-06-14T04:14:40;95235.63;;;11.58;58.58
70684;BME280;58263;48.146;11.440;2023-06-14T04:17:06;95246.06;;;11.54;58.95
70684;BME280;58263;48.146;11.440;2023-06-14T04:19:31;95250.38;;;11.55;59.31
70684;BME280;58263;48.146;11.440;2023-06-14T04:21:57;95250.66;;;11.59;58.99
70684;BME280;58263;48.146;11.440;2023-06-14T04:24:24;95254.31;;;11.70;58.52
70684;BME280;58263;48.146;11.440;2023-06-14T04:26:50;95265.72;;;11.60;58.72
70684;BME280;58263;48.146;11.440;2023-06-14T04:29:17;95256.63;;;11.61;58.79
70684;BME280;58263;48.146;11.440;2023-06-14T04:31:45;95261.00;;;11.67;58.47
70684;BME280;58263;48.146;11.440;2023-06-14T04:34:11;95262.19;;;11.76;58.56
70684;BME280;58263;48.146;11.440;2023-06-14T04:36:42;95266.63;;;11.88;58.58
70684;BME280;58263;48.146;11.440;2023-06-14T04:39:16;95262.63;;;11.90;58.12
70684;BME280;58263;48.146;11.440;2023-06-14T04:41:45;95260.03;;;11.95;58.11
70684;BME280;58263;48.146;11.440;2023-06-14T04:44:12;95262.53;;;12.02;58.03
70684;BME280;58263;48.146;11.440;2023-06-14T04:46:38;95267.44;;;12.10;58.01
70684;BME280;58263;48.146;11.440;2023-06-14T04:49:12;95271.31;;;12.20;57.70
70684;BME280;58263;48.146;11.440;2023-06-14T04:51:40;95274.06;;;12.25;58.35
70684;BME280;58263;48.146;11.440;2023-06-14T04:54:06;95284.44;;;12.38;57.99
70684;BME280;58263;48.146;11.440;2023-06-14T04:56:35;95279.91;;;12.44;57.36
70684;BME280;58263;48.146;11.440;2023-06-14T04:59:02;95276.31;;;12.60;57.52
70684;BME280;58263;48.146;11.440;2023-06-14T05:01:30;95273.47;;;12.72;56.97
70684;BME280;58263;48.146;11.440;2023-06-14T05:03:59;95272.47;;;12.83;56.69
70684;BME280;58263;48.146;11.440;2023-06-14T05:06:25;95277.94;;;12.94;56.61
70684;BME280;58263;48.146;11.440;2023-06-14T05:08:54;95280.44;;;13.06;56.43
70684;BME280;58263;48.146;11.440;2023-06-14T05:11:19;95273.31;;;13.22;55.37
70684;BME280;58263;48.146;11.440;2023-06-14T05:13:45;95280.19;;;13.40;55.43
70684;BME280;58263;48.146;11.440;2023-06-14T05:16:12;95283.78;;;13.56;55.26
70684;BME280;58263;48.146;11.440;2023-06-14T05:18:37;95277.38;;;13.67;53.86
70684;BME280;58263;48.146;11.440;2023-06-14T05:21:03;95282.88;;;13.88;53.65
70684;BME280;58263;48.146;11.440;2023-06-14T05:23:30;95286.47;;;14.09;52.44
70684;BME280;58263;48.146;11.440;2023-06-14T05:25:56;95284.63;;;14.25;51.89
70684;BME280;58263;48.146;11.440;2023-06-14T05:28:22;95284.13;;;14.38;51.74
70684;BME280;58263;48.146;11.440;2023-06-14T05:30:47;95293.34;;;14.47;50.64
70684;BME280;58263;48.146;11.440;2023-06-14T05:33:13;95286.94;;;14.69;49.74
70684;BME280;58263;48.146;11.440;2023-06-14T05:35:38;95290.19;;;14.86;49.38
70684;BME280;58263;48.146;11.440;2023-06-14T05:38:03;95299.91;;;15.03;48.04
70684;BME280;58263;48.146;11.440;2023-06-14T05:40:29;95286.13;;;15.25;47.39
70684;BME280;58263;48.146;11.440;2023-06-14T05:42:54;95289.09;;;15.39;47.27
70684;BME280;58263;48.146;11.440;2023-06-14T05:45:20;95297.44;;;15.58;46.78
70684;BME280;58263;48.146;11.440;2023-06-14T05:47:48;95294.97;;;15.77;45.39
70684;BME280;58263;48.146;11.440;2023-06-14T05:50:14;95287.38;;;16.00;45.55
70684;BME280;58263;48.146;11.440;2023-06-14T05:52:39;95295.97;;;16.17;44.86
70684;BME280;58263;48.146;11.440;2023-06-14T05:55:04;95286.41;;;16.35;44.85
70684;BME280;58263;48.146;11.440;2023-06-14T05:57:31;95286.06;;;16.52;44.51
70684;BME280;58263;48.146;11.440;2023-06-14T05:59:56;95282.66;;;16.71;44.19
70684;BME280;58263;48.146;11.440;2023-06-14T06:02:21;95298.28;;;16.95;43.60
70684;BME280;58263;48.146;11.440;2023-06-14T06:04:47;95294.38;;;17.06;42.65
70684;BME280;58263;48.146;11.440;2023-06-14T06:07:12;95295.34;;;17.20;42.63
70684;BME280;58263;48.146;11.440;2023-06-14T06:09:38;95297.66;;;17.37;42.48
70684;BME280;58263;48.146;11.440;2023-06-14T06:12:06;95297.31;;;17.44;41.29
70684;BME280;58263;48.146;11.440;2023-06-14T06:14:32;95300.41;;;17.62;41.54
70684;BME280;58263;48.146;11.440;2023-06-14T06:16:57;95292.63;;;17.79;41.05
70684;BME280;58263;48.146;11.440;2023-06-14T06:19:22;95306.81;;;18.00;41.13
70684;BME280;58263;48.146;11.440;2023-06-14T06:21:48;95306.81;;;18.24;40.48
70684;BME280;58263;48.146;11.440;2023-06-14T06:24:13;95302.75;;;18.46;39.46
70684;BME280;58263;48.146;11.440;2023-06-14T06:26:39;95297.47;;;18.55;38.84
70684;BME280;58263;48.146;11.440;2023-06-14T06:29:05;95302.69;;;18.70;38.81
70684;BME280;58263;48.146;11.440;2023-06-14T06:31:31;95307.28;;;18.94;38.81
70684;BME280;58263;48.146;11.440;2023-06-14T06:33:56;95309.91;;;19.18;38.55
70684;BME280;58263;48.146;11.440;2023-06-14T06:36:22;95309.47;;;19.44;38.43
70684;BME280;58263;48.146;11.440;2023-06-14T06:38:48;95305.28;;;19.66;38.22
70684;BME280;58263;48.146;11.440;2023-06-14T06:41:13;95306.78;;;19.91;38.47
70684;BME280;58263;48.146;11.440;2023-06-14T06:43:39;95307.41;;;20.02;36.88
70684;BME280;58263;48.146;11.440;2023-06-14T06:46:04;95307.50;;;20.24;36.65
70684;BME280;58263;48.146;11.440;2023-06-14T06:48:30;95305.78;;;20.42;36.41
70684;BME280;58263;48.146;11.440;2023-06-14T06:50:55;95316.44;;;20.67;35.87
70684;BME280;58263;48.146;11.440;2023-06-14T06:53:21;95321.72;;;20.77;35.05
70684;BME280;58263;48.146;11.440;2023-06-14T06:55:46;95317.84;;;20.92;34.23
70684;BME280;58263;48.146;11.440;2023-06-14T06:58:12;95314.75;;;21.07;34.66
70684;BME280;58263;48.146;11.440;2023-06-14T07:00:37;95319.25;;;21.26;33.85
70684;BME280;58263;48.146;11.440;2023-06-14T07:03:03;95320.72;;;21.32;34.11
70684;BME280;58263;48.146;11.440;2023-06-14T07:05:29;95316.81;;;21.47;33.59
70684;BME280;58263;48.146;11.440;2023-06-14T07:07:54;95322.41;;;21.65;33.27
70684;BME280;58263;48.146;11.440;2023-06-14T07:10:19;95324.63;;;21.85;32.53
70684;BME280;58263;48.146;11.440;2023-06-14T07:12:48;95323.94;;;22.11;32.85
70684;BME280;58263;48.146;11.440;2023-06-14T07:15:13;95324.19;;;22.32;32.48
70684;BME280;58263;48.146;11.440;2023-06-14T07:17:38;95324.91;;;22.47;32.33
70684;BME280;58263;48.146;11.440;2023-06-14T07:20:04;95324.63;;;22.66;31.69
70684;BME280;58263;48.146;11.440;2023-06-14T07:22:34;95321.78;;;22.88;32.20
70684;BME280;58263;48.146;11.440;2023-06-14T07:24:59;95328.72;;;23.12;31.68
70684;BME280;58263;48.146;11.440;2023-06-14T07:27:25;95322.31;;;23.25;31.12
70684;BME280;58263;48.146;11.440;2023-06-14T07:29:50;95330.00;;;23.41;30.76
70684;BME280;58263;48.146;11.440;2023-06-14T07:32:15;95329.84;;;23.46;30.93
70684;BME280;58263;48.146;11.440;2023-06-14T07:34:40;95334.69;;;23.58;30.33
70684;BME280;58263;48.146;11.440;2023-06-14T07:37:07;95341.56;;;23.82;30.10
70684;BME280;58263;48.146;11.440;2023-06-14T07:39:32;95340.13;;;23.93;28.59
70684;BME280;58263;48.146;11.440;2023-06-14T07:45:19;95341.69;;;24.50;28.75
70684;BME280;58263;48.146;11.440;2023-06-14T07:47:45;95337.75;;;24.69;28.93
70684;BME280;58263;48.146;11.440;2023-06-14T07:50:10;95341.84;;;24.84;28.40
70684;BME280;58263;48.146;11.440;2023-06-14T07:52:35;95341.53;;;24.85;27.78
70684;BME280;58263;48.146;11.440;2023-06-14T07:55:00;95335.88;;;25.11;28.97
70684;BME280;58263;48.146;11.440;2023-06-14T07:57:26;95346.38;;;25.30;28.51
70684;BME280;58263;48.146;11.440;2023-06-14T07:59:51;95343.41;;;25.44;26.94
70684;BME280;58263;48.146;11.440;2023-06-14T08:02:17;95332.25;;;25.62;26.39
70684;BME280;58263;48.146;11.440;2023-06-14T08:04:42;95333.66;;;25.80;26.29
70684;BME280;58263;48.146;11.440;2023-06-14T08:07:08;95333.50;;;25.64;26.42
70684;BME280;58263;48.146;11.440;2023-06-14T08:09:34;95333.34;;;25.82;26.45
70684;BME280;58263;48.146;11.440;2023-06-14T08:11:59;95339.78;;;25.98;26.45
70684;BME280;58263;48.146;11.440;2023-06-14T08:14:25;95340.44;;;26.17;25.42
70684;BME280;58263;48.146;11.440;2023-06-14T08:16:50;95343.06;;;26.13;25.10
70684;BME280;58263;48.146;11.440;2023-06-14T08:19:15;95335.66;;;26.51;25.16
70684;BME280;58263;48.146;11.440;2023-06-14T08:21:42;95336.25;;;26.69;25.13
70684;BME280;58263;48.146;11.440;2023-06-14T08:24:10;95340.38;;;26.87;24.57
70684;BME280;58263;48.146;11.440;2023-06-14T08:26:37;95343.00;;;26.96;23.70
70684;BME280;58263;48.146;11.440;2023-06-14T08:29:03;95340.00;;;27.13;23.55
70684;BME280;58263;48.146;11.440;2023-06-14T08:31:28;95353.81;;;27.29;23.55
70684;BME280;58263;48.146;11.440;2023-06-14T08:33:54;95355.66;;;27.38;23.21
70684;BME280;58263;48.146;11.440;2023-06-14T08:36:19;95360.22;;;27.58;22.68
70684;BME280;58263;48.146;11.440;2023-06-14T08:38:45;95350.69;;;27.56;21.88
70684;BME280;58263;48.146;11.440;2023-06-14T08:41:11;95355.00;;;27.69;22.08
70684;BME280;58263;48.146;11.440;2023-06-14T08:43:38;95350.38;;;28.02;21.98
70684;BME280;58263;48.146;11.440;2023-06-14T08:46:06;95353.78;;;28.11;21.07
70684;BME280;58263;48.146;11.440;2023-06-14T08:48:31;95358.16;;;28.44;21.84
70684;BME280;58263;48.146;11.440;2023-06-14T08:51:00;95355.69;;;28.55;21.35
70684;BME280;58263;48.146;11.440;2023-06-14T08:53:32;95347.13;;;28.60;20.90
70684;BME280;58263;48.146;11.440;2023-06-14T08:55:59;95357.59;;;28.82;21.80
70684;BME280;58263;48.146;11.440;2023-06-14T08:58:33;95348.25;;;29.07;21.22
70684;BME280;58263;48.146;11.440;2023-06-14T09:01:00;95358.97;;;28.92;20.45
70684;BME280;58263;48.146;11.440;2023-06-14T09:03:26;95351.47;;;29.09;20.53
70684;BME280;58263;48.146;11.440;2023-06-14T09:05:58;95350.97;;;29.39;20.67
70684;BME280;58263;48.146;11.440;2023-06-14T09:08:27;95359.84;;;29.67;20.75
70684;BME280;58263;48.146;11.440;2023-06-14T09:10:56;95344.88;;;29.88;19.66
70684;BME280;58263;48.146;11.440;2023-06-14T09:13:21;95348.56;;;29.96;19.91
70684;BME280;58263;48.146;11.440;2023-06-14T09:15:47;95355.03;;;30.04;19.51
70684;BME280;58263;48.146;11.440;2023-06-14T09:18:12;95354.97;;;30.00;19.47
70684;BME280;58263;48.146;11.440;2023-06-14T09:20:37;95358.78;;;29.92;19.59
70684;BME280;58263;48.146;11.440;2023-06-14T09:23:04;95350.34;;;30.08;19.23
70684;BME280;58263;48.146;11.440;2023-06-14T09:25:30;95357.00;;;30.46;19.33
70684;BME280;58263;48.146;11.440;2023-06-14T09:27:55;95363.78;;;30.06;18.43
70684;BME280;58263;48.146;11.440;2023-06-14T09:30:21;95360.13;;;30.44;19.28
70684;BME280;58263;48.146;11.440;2023-06-14T09:32:46;95356.00;;;30.34;19.02
70684;BME280;58263;48.146;11.440;2023-06-14T09:35:12;95363.59;;;30.18;18.86
70684;BME280;58263;48.146;11.440;2023-06-14T09:37:37;95363.53;;;30.38;17.44
70684;BME280;58263;48.146;11.440;2023-06-14T09:40:04;95353.09;;;30.27;18.81
70684;BME280;58263;48.146;11.440;2023-06-14T09:42:29;95358.16;;;30.22;18.72
70684;BME280;58263;48.146;11.440;2023-06-14T09:44:56;95370.59;;;30.78;19.13
70684;BME280;58263;48.146;11.440;2023-06-14T09:47:22;95378.31;;;30.22;18.52
70684;BME280;58263;48.146;11.440;2023-06-14T09:49:48;95375.44;;;30.84;19.15
70684;BME280;58263;48.146;11.440;2023-06-14T09:52:19;95371.50;;;31.09;18.92
70684;BME280;58263;48.146;11.440;2023-06-14T09:54:46;95373.19;;;31.17;18.84
70684;BME280;58263;48.146;11.440;2023-06-14T09:57:13;95369.75;;;31.24;19.02
70684;BME280;58263;48.146;11.440;2023-06-14T09:59:44;95371.63;;;30.93;18.81
70684;BME280;58263;48.146;11.440;2023-06-14T10:02:26;95363.13;;;31.05;18.72
70684;BME280;58263;48.146;11.440;2023-06-14T10:05:18;95368.91;;;31.80;18.31
70684;BME280;58263;48.146;11.440;2023-06-14T10:07:52;95368.50;;;31.78;17.28
70684;BME280;58263;48.146;11.440;2023-06-14T10:10:18;95366.97;;;31.54;17.79
70684;BME280;58263;48.146;11.440;2023-06-14T10:12:44;95368.69;;;31.62;18.30
70684;BME280;58263;48.146;11.440;2023-06-14T10:15:10;95354.22;;;32.14;17.42
70684;BME280;58263;48.146;11.440;2023-06-14T10:17:44;95361.31;;;32.45;17.47
70684;BME280;58263;48.146;11.440;2023-06-14T10:20:30;95357.66;;;31.69;17.51
70684;BME280;58263;48.146;11.440;2023-06-14T10:23:19;95365.03;;;31.58;18.16
70684;BME280;58263;48.146;11.440;2023-06-14T10:25:44;95366.31;;;31.64;18.18
70684;BME280;58263;48.146;11.440;2023-06-14T10:28:20;95354.44;;;31.64;18.67
70684;BME280;58263;48.146;11.440;2023-06-14T10:31:19;95365.59;;;31.67;18.68
70684;BME280;58263;48.146;11.440;2023-06-14T10:33:49;95360.81;;;31.11;18.49
70684;BME280;58263;48.146;11.440;2023-06-14T10:36:28;95347.53;;;29.84;19.16
70684;BME280;58263;48.146;11.440;2023-06-14T10:39:10;95358.38;;;29.18;20.46
70684;BME280;58263;48.146;11.440;2023-06-14T10:41:39;95346.91;;;28.81;21.02
70684;BME280;58263;48.146;11.440;2023-06-14T10:47:00;95352.13;;;29.38;19.91
70684;BME280;58263;48.146;11.440;2023-06-14T10:49:45;95348.94;;;29.36;20.07
70684;BME280;58263;48.146;11.440;2023-06-14T10:52:15;95350.53;;;29.76;20.33
70684;BME280;58263;48.146;11.440;2023-06-14T10:57:21;95356.28;;;30.76;19.65
70684;BME280;58263;48.146;11.440;2023-06-14T10:59:46;95356.06;;;31.11;19.60
70684;BME280;58263;48.146;11.440;2023-06-14T11:05:04;95351.88;;;31.21;18.53
70684;BME280;58263;48.146;11.440;2023-06-14T11:10:35;95345.56;;;31.51;17.75
70684;BME280;58263;48.146;11.440;2023-06-14T11:13:02;95349.34;;;31.66;17.89
70684;BME280;58263;48.146;11.440;2023-06-14T11:15:32;95346.06;;;31.94;17.93
70684;BME280;58263;48.146;11.440;2023-06-14T11:18:05;95344.06;;;31.91;18.04
70684;BME280;58263;48.146;11.440;2023-06-14T11:20:33;95349.91;;;31.22;18.59
70684;BME280;58263;48.146;11.440;2023-06-14T11:22:58;95349.06;;;30.67;18.74
70684;BME280;58263;48.146;11.440;2023-06-14T11:25:24;95356.78;;;31.05;19.05
70684;BME280;58263;48.146;11.440;2023-06-14T11:27:50;95353.38;;;31.15;18.01
70684;BME280;58263;48.146;11.440;2023-06-14T11:30:17;95354.38;;;31.60;17.95
70684;BME280;58263;48.146;11.440;2023-06-14T11:32:45;95360.66;;;31.57;18.06
70684;BME280;58263;48.146;11.440;2023-06-14T11:35:10;95347.84;;;31.76;17.32
70684;BME280;58263;48.146;11.440;2023-06-14T11:37:36;95343.75;;;31.35;17.50
70684;BME280;58263;48.146;11.440;2023-06-14T11:46:46;95342.25;;;30.61;19.34
70684;BME280;58263;48.146;11.440;2023-06-14T11:49:11;95336.59;;;30.81;18.63
70684;BME280;58263;48.146;11.440;2023-06-14T11:51:37;95337.59;;;31.19;18.75
70684;BME280;58263;48.146;11.440;2023-06-14T11:54:03;95342.84;;;31.01;18.41
70684;BME280;58263;48.146;11.440;2023-06-14T11:56:29;95341.63;;;30.98;18.32
70684;BME280;58263;48.146;11.440;2023-06-14T11:58:55;95340.03;;;30.71;18.17
70684;BME280;58263;48.146;11.440;2023-06-14T12:08:05;95335.56;;;30.66;18.43
70684;BME280;58263;48.146;11.440;2023-06-14T12:10:39;95337.03;;;30.83;18.14
70684;BME280;58263;48.146;11.440;2023-06-14T12:13:06;95339.16;;;30.93;17.88
70684;BME280;58263;48.146;11.440;2023-06-14T12:15:31;95336.78;;;31.18;17.73
70684;BME280;58263;48.146;11.440;2023-06-14T12:17:58;95329.72;;;31.21;17.61
70684;BME280;58263;48.146;11.440;2023-06-14T12:20:29;95335.88;;;31.38;16.95
70684;BME280;58263;48.146;11.440;2023-06-14T12:22:58;95327.50;;;31.64;17.68
70684;BME280;58263;48.146;11.440;2023-06-14T12:25:33;95324.94;;;31.82;17.64
70684;BME280;58263;48.146;11.440;2023-06-14T12:28:05;95325.94;;;31.63;16.98
70684;BME280;58263;48.146;11.440;2023-06-14T12:30:31;95318.06;;;32.07;17.16
70684;BME280;58263;48.146;11.440;2023-06-14T12:32:56;95326.75;;;32.05;17.18
70684;BME280;58263;48.146;11.440;2023-06-14T12:35:22;95325.41;;;31.88;17.25
70684;BME280;58263;48.146;11.440;2023-06-14T12:37:47;95323.44;;;32.26;17.34
70684;BME280;58263;48.146;11.440;2023-06-14T12:40:13;95325.38;;;31.54;17.05
70684;BME280;58263;48.146;11.440;2023-06-14T12:42:38;95325.00;;;30.98;17.76
70684;BME280;58263;48.146;11.440;2023-06-14T12:45:04;95325.81;;;30.49;18.78
70684;BME280;58263;48.146;11.440;2023-06-14T12:47:30;95319.59;;;30.09;18.79
70684;BME280;58263;48.146;11.440;2023-06-14T12:49:55;95326.84;;;30.64;18.65
70684;BME280;58263;48.146;11.440;2023-06-14T12:59:04;95333.13;;;31.41;18.08
70684;BME280;58263;48.146;11.440;2023-06-14T13:01:31;95328.47;;;31.49;18.01
70684;BME280;58263;48.146;11.440;2023-06-14T13:03:56;95337.84;;;31.67;17.77
70684;BME280;58263;48.146;11.440;2023-06-14T13:06:21;95338.56;;;31.61;17.83
70684;BME280;58263;48.146;11.440;2023-06-14T13:08:47;95339.44;;;31.68;17.60
70684;BME280;58263;48.146;11.440;2023-06-14T13:11:13;95338.53;;;31.30;17.68
70684;BME280;58263;48.146;11.440;2023-06-14T13:13:38;95343.59;;;31.85;17.54
70684;BME280;58263;48.146;11.440;2023-06-14T13:16:03;95337.69;;;31.57;17.41
70684;BME280;58263;48.146;11.440;2023-06-14T13:18:29;95332.78;;;31.77;17.46
70684;BME280;58263;48.146;11.440;2023-06-14T13:20:54;95339.75;;;31.33;17.04
70684;BME280;58263;48.146;11.440;2023-06-14T13:23:19;95347.41;;;30.63;17.36
70684;BME280;58263;48.146;11.440;2023-06-14T13:25:45;95337.06;;;30.37;17.98